Time;durP1;ratioP1;P1;durP2;ratioP2;P2;SDS_P1;SDS_P2;PMS_P1;PMS_P2;Temp;Humidity;BMP_temperature;BMP_pressure;BME280_temperature;BME280_humidity;BME280_pressure;Samples;Min_cycle;Max_cycle;Signal;HPM_P1;HPM_P2
2023/04/07 00:01:28;;;;;;;7.63;1.40;;;26.70;21.30;;;;;;5030235;28;20126;-60
2023/04/07 00:03:55;;;;;;;5.50;1.35;;;26.60;22.10;;;;;;5030527;28;20074;-58
2023/04/07 00:06:21;;;;;;;2.70;1.25;;;26.60;21.60;;;;;;5030434;28;20174;-59
2023/04/07 00:08:47;;;;;;;9.68;1.08;;;26.40;21.10;;;;;;5030005;28;20132;-58
2023/04/07 00:11:14;;;;;;;13.65;1.77;;;26.00;20.90;;;;;;5030392;28;20079;-60
2023/04/07 00:13:40;;;;;;;5.63;1.30;;;26.20;21.10;;;;;;5029946;28;20076;-59
2023/04/07 00:16:07;;;;;;;6.25;1.30;;;26.30;21.00;;;;;;5029589;28;20071;-61
2023/04/07 00:18:33;;;;;;;26.83;20.17;;;26.20;21.30;;;;;;5029848;28;20478;-60
2023/04/07 00:20:59;;;;;;;26.52;20.80;;;26.20;21.20;;;;;;5028107;28;20088;-59
2023/04/07 00:23:26;;;;;;;10.90;3.67;;;26.20;21.40;;;;;;5028468;28;20126;-56
2023/04/07 00:25:53;;;;;;;7.07;1.80;;;26.10;21.20;;;;;;5029980;28;20068;-60
2023/04/07 00:28:19;;;;;;;5.28;1.27;;;25.90;21.30;;;;;;5029086;28;20073;-58
2023/04/07 00:30:45;;;;;;;3.88;1.27;;;25.70;21.20;;;;;;5028809;28;20119;-61
2023/04/07 00:33:12;;;;;;;7.35;1.30;;;25.50;21.50;;;;;;5031098;28;20150;-58
2023/04/07 00:35:38;;;;;;;7.07;1.13;;;25.50;21.50;;;;;;5029797;28;20085;-59
2023/04/07 00:38:05;;;;;;;7.95;1.33;;;25.50;21.30;;;;;;5029062;28;20081;-59
2023/04/07 00:40:32;;;;;;;4.38;1.27;;;25.30;21.30;;;;;;5029358;28;20092;-61
2023/04/07 00:42:58;;;;;;;4.05;1.23;;;25.30;21.30;;;;;;5028976;28;20093;-58
2023/04/07 00:45:24;;;;;;;7.70;1.25;;;25.30;21.30;;;;;;5028959;28;20157;-61
2023/04/07 00:47:51;;;;;;;17.85;6.68;;;25.40;21.60;;;;;;5028875;28;20138;-60
2023/04/07 00:50:18;;;;;;;7.15;1.40;;;25.20;21.40;;;;;;5029374;28;20186;-61
2023/04/07 00:52:45;;;;;;;10.10;1.50;;;25.30;21.90;;;;;;5028756;28;20126;-60
2023/04/07 00:55:11;;;;;;;4.75;1.27;;;25.20;21.50;;;;;;5029413;28;20650;-60
2023/04/07 00:57:38;;;;;;;4.38;1.20;;;25.10;21.20;;;;;;5028915;28;20116;-62
2023/04/07 01:00:05;;;;;;;5.55;1.17;;;25.10;21.40;;;;;;5028167;28;20100;-61
2023/04/07 01:02:53;;;;;;;12.02;1.40;;;24.90;21.30;;;;;;5029170;28;20103;-62
2023/04/07 01:05:59;;;;;;;2.05;1.10;;;24.90;21.60;;;;;;5028642;28;20433;-59
2023/04/07 01:08:30;;;;;;;4.05;1.02;;;24.90;21.60;;;;;;5026730;28;20168;-57
2023/04/07 01:11:20;;;;;;;7.35;2.08;;;24.90;21.20;;;;;;5029489;28;20077;-60
2023/04/07 01:13:50;;;;;;;10.13;2.35;;;24.80;21.30;;;;;;5020831;28;20088;-60
2023/04/07 01:16:40;;;;;;;9.02;1.35;;;24.60;21.30;;;;;;5027502;28;20428;-60
2023/04/07 01:19:31;;;;;;;9.63;1.52;;;24.60;21.90;;;;;;5025896;28;20131;-59
2023/04/07 01:21:59;;;;;;;7.57;1.50;;;24.50;21.40;;;;;;5024329;28;20508;-58
2023/04/07 01:25:05;;;;;;;5.93;1.40;;;24.30;20.90;;;;;;5026724;28;20092;-62
2023/04/07 01:28:02;;;;;;;5.65;1.45;;;24.20;21.30;;;;;;5027262;28;20108;-63
2023/04/07 01:30:35;;;;;;;5.78;1.00;;;24.00;21.20;;;;;;5026884;28;20081;-58
2023/04/07 01:33:03;;;;;;;3.33;1.30;;;23.90;21.40;;;;;;5027435;28;20073;-54
2023/04/07 01:35:33;;;;;;;4.32;1.17;;;23.70;21.50;;;;;;5027804;28;20440;-60
2023/04/07 01:38:02;;;;;;;3.92;1.67;;;23.60;21.40;;;;;;5027440;28;20601;-58
2023/04/07 01:40:29;;;;;;;7.85;1.60;;;23.50;21.90;;;;;;5027716;28;20087;-59
2023/04/07 01:42:57;;;;;;;6.57;1.95;;;23.40;21.90;;;;;;5027707;28;20068;-60
2023/04/07 01:45:25;;;;;;;4.13;0.98;;;23.30;22.20;;;;;;5026763;28;20105;-57
2023/04/07 01:47:52;;;;;;;5.25;1.50;;;23.30;22.30;;;;;;5027833;28;20065;-62
2023/04/07 01:50:21;;;;;;;5.15;1.50;;;23.20;22.60;;;;;;5028083;28;20065;-57
2023/04/07 01:52:47;;;;;;;5.55;1.55;;;23.00;22.70;;;;;;5027388;28;20091;-60
2023/04/07 01:55:14;;;;;;;8.45;1.63;;;23.00;23.00;;;;;;5026818;28;20085;-55
2023/04/07 01:57:40;;;;;;;7.22;1.67;;;22.90;23.90;;;;;;5027494;28;20088;-58
2023/04/07 02:00:07;;;;;;;9.55;1.70;;;22.80;23.10;;;;;;5027188;28;20421;-60
2023/04/07 02:02:40;;;;;;;4.50;1.90;;;22.70;22.80;;;;;;5025815;28;20073;-58
2023/04/07 02:05:11;;;;;;;7.70;1.83;;;22.60;23.60;;;;;;5029877;28;20068;-61
2023/04/07 02:08:00;;;;;;;8.10;2.20;;;22.50;23.00;;;;;;5030596;28;20108;-57
2023/04/07 02:10:29;;;;;;;13.38;2.72;;;22.40;22.70;;;;;;5030980;28;20456;-61
2023/04/07 02:12:57;;;;;;;12.13;2.65;;;22.40;23.30;;;;;;5030784;28;20087;-63
2023/04/07 02:15:25;;;;;;;15.23;2.90;;;22.20;24.00;;;;;;5030886;28;20081;-61
2023/04/07 02:17:55;;;;;;;11.13;3.05;;;22.10;24.00;;;;;;5030939;28;20069;-61
2023/04/07 02:20:22;;;;;;;7.25;3.05;;;22.00;24.40;;;;;;5030393;28;20103;-60
2023/04/07 02:22:49;;;;;;;13.35;2.70;;;21.90;24.60;;;;;;5026870;28;20073;-61
2023/04/07 02:25:26;;;;;;;8.93;3.35;;;21.80;24.80;;;;;;5029286;28;20088;-62
2023/04/07 02:27:52;;;;;;;;;;;21.70;24.80;;;;;;5031512;28;20076;-63
2023/04/07 02:30:19;;;;;;;7.60;3.05;;;21.60;25.10;;;;;;5030034;28;19956;-61
2023/04/07 02:32:45;;;;;;;10.07;3.67;;;21.50;26.20;;;;;;5032381;28;20093;-60
2023/04/07 02:35:12;;;;;;;13.43;2.50;;;21.30;26.30;;;;;;5030765;28;20216;-60
2023/04/07 02:37:39;;;;;;;12.48;2.70;;;21.20;27.20;;;;;;5030773;28;20073;-61
2023/04/07 02:40:06;;;;;;;10.45;2.65;;;21.10;27.30;;;;;;5030124;28;20095;-62
2023/04/07 02:42:33;;;;;;;14.18;2.80;;;21.00;27.40;;;;;;5030396;28;20587;-61
2023/04/07 02:44:59;;;;;;;13.18;2.63;;;20.80;27.70;;;;;;5030600;28;20117;-59
2023/04/07 02:47:26;;;;;;;10.43;2.83;;;20.70;28.70;;;;;;5031479;28;20461;-61
2023/04/07 02:49:52;;;;;;;11.13;3.05;;;20.60;28.30;;;;;;5030030;28;20089;-61
2023/04/07 02:52:19;;;;;;;12.93;3.13;;;20.50;28.50;;;;;;5029543;28;20069;-62
2023/04/07 02:54:46;;;;;;;24.48;3.58;;;20.40;28.70;;;;;;5029658;28;20584;-65
2023/04/07 02:57:15;;;;;;;23.35;4.20;;;20.20;28.40;;;;;;5029561;28;20079;-61
2023/04/07 02:59:41;;;;;;;12.38;3.15;;;20.10;28.90;;;;;;5027687;28;20096;-60
2023/04/07 03:02:07;;;;;;;14.38;2.83;;;20.10;29.20;;;;;;5027982;28;20170;-61
2023/04/07 03:04:34;;;;;;;16.55;3.25;;;20.00;29.10;;;;;;5028276;28;20073;-55
2023/04/07 03:07:01;;;;;;;25.23;3.50;;;19.90;29.80;;;;;;5025251;28;20445;-59
2023/04/07 03:09:27;;;;;;;22.45;3.45;;;19.80;29.80;;;;;;5027822;28;20073;-57
2023/04/07 03:11:54;;;;;;;17.60;3.42;;;19.80;29.30;;;;;;5028761;28;20079;-59
2023/04/07 03:14:21;;;;;;;14.02;3.13;;;19.70;29.50;;;;;;5026925;28;20216;-63
2023/04/07 03:16:47;;;;;;;14.40;3.28;;;19.70;29.90;;;;;;5027553;28;20077;-61
2023/04/07 03:19:15;;;;;;;12.35;3.28;;;19.60;30.40;;;;;;5028711;28;20139;-61
2023/04/07 03:21:41;;;;;;;12.00;2.85;;;19.50;30.30;;;;;;5029494;28;20097;-62
2023/04/07 03:24:08;;;;;;;14.30;3.38;;;19.40;31.10;;;;;;5028606;28;20207;-63
2023/04/07 03:26:34;;;;;;;17.23;4.32;;;19.30;30.10;;;;;;5029726;28;20080;-62
2023/04/07 03:29:01;;;;;;;23.33;4.28;;;19.20;30.00;;;;;;5029982;28;20880;-59
2023/04/07 03:31:27;;;;;;;21.08;4.72;;;19.20;30.10;;;;;;5029999;28;20108;-57
2023/04/07 03:33:53;;;;;;;22.35;4.90;;;19.10;31.20;;;;;;5030223;28;20517;-56
2023/04/07 03:36:20;;;;;;;22.38;4.78;;;19.10;31.10;;;;;;5031615;28;20073;-59
2023/04/07 03:38:47;;;;;;;23.38;5.28;;;19.00;31.50;;;;;;5030006;28;20092;-58
2023/04/07 03:41:13;;;;;;;25.85;6.53;;;19.00;31.60;;;;;;5030831;28;20795;-57
2023/04/07 03:43:40;;;;;;;28.50;7.35;;;18.90;32.00;;;;;;5027572;28;20064;-59
2023/04/07 03:46:07;;;;;;;28.00;7.35;;;18.90;32.20;;;;;;5027089;28;20075;-60
2023/04/07 03:48:33;;;;;;;34.03;8.80;;;18.80;31.30;;;;;;5028331;28;20073;-65
2023/04/07 03:50:59;;;;;;;55.50;10.90;;;18.70;31.20;;;;;;5029960;28;20187;-63
2023/04/07 03:53:26;;;;;;;50.85;10.43;;;18.70;31.00;;;;;;5030566;28;20529;-60
2023/04/07 03:55:52;;;;;;;64.07;11.10;;;18.70;30.40;;;;;;5029308;28;20080;-60
2023/04/07 03:58:19;;;;;;;61.50;11.50;;;18.60;29.70;;;;;;5029951;28;20092;-62
2023/04/07 04:00:45;;;;;;;42.83;10.43;;;18.60;29.90;;;;;;5044760;28;20095;-62
2023/04/07 04:03:11;;;;;;;52.83;11.13;;;18.60;30.80;;;;;;5030524;28;20115;-62
2023/04/07 04:05:39;;;;;;;57.58;11.52;;;18.60;28.90;;;;;;5029566;28;20073;-60
2023/04/07 04:08:06;;;;;;;60.63;12.75;;;18.60;29.50;;;;;;5029794;28;20421;-62
2023/04/07 04:10:32;;;;;;;56.85;12.07;;;18.60;29.20;;;;;;5030157;28;20131;-62
2023/04/07 04:12:59;;;;;;;51.90;12.20;;;18.60;29.60;;;;;;5029871;28;20180;-58
2023/04/07 04:15:26;;;;;;;54.10;12.80;;;18.60;30.00;;;;;;5029341;28;20073;-61
2023/04/07 04:17:52;;;;;;;67.50;12.75;;;18.50;30.30;;;;;;5030179;28;20496;-60
2023/04/07 04:20:21;;;;;;;54.70;12.07;;;18.50;29.80;;;;;;5029688;28;20093;-61
2023/04/07 04:22:47;;;;;;;56.30;12.60;;;18.40;30.20;;;;;;5029590;28;20173;-62
2023/04/07 04:25:14;;;;;;;72.28;12.93;;;18.40;31.50;;;;;;5025999;28;20083;-61
2023/04/07 04:27:41;;;;;;;48.15;11.38;;;18.30;31.20;;;;;;5028003;28;20162;-58
2023/04/07 04:30:07;;;;;;;70.22;12.70;;;18.30;31.70;;;;;;5028534;28;20112;-60
2023/04/07 04:32:34;;;;;;;72.70;13.20;;;18.20;31.00;;;;;;5030320;28;20077;-62
2023/04/07 04:35:01;;;;;;;64.43;13.77;;;18.10;31.80;;;;;;5029214;28;20069;-59
2023/04/07 04:37:27;;;;;;;68.97;13.88;;;18.00;32.00;;;;;;5028797;28;21753;-60
2023/04/07 04:39:54;;;;;;;61.10;13.82;;;17.90;32.20;;;;;;5028684;28;20104;-60
2023/04/07 04:42:20;;;;;;;64.53;13.57;;;17.90;32.70;;;;;;5029088;28;20096;-59
2023/04/07 04:44:47;;;;;;;75.50;14.98;;;17.90;33.20;;;;;;5028268;28;20105;-61
2023/04/07 04:47:13;;;;;;;65.97;14.50;;;17.80;33.40;;;;;;5028745;28;20072;-57
2023/04/07 04:49:40;;;;;;;58.33;13.43;;;17.80;32.00;;;;;;5029810;28;20455;-59
2023/04/07 04:52:06;;;;;;;42.60;12.65;;;17.70;33.00;;;;;;5028939;28;20181;-60
2023/04/07 04:54:33;;;;;;;67.93;15.38;;;17.60;33.20;;;;;;5028446;28;20516;-59
2023/04/07 04:57:00;;;;;;;57.53;14.30;;;17.60;33.90;;;;;;5028742;28;20092;-59
2023/04/07 04:59:26;;;;;;;70.20;16.00;;;17.50;34.30;;;;;;5028800;28;20069;-61
2023/04/07 05:01:53;;;;;;;80.35;15.55;;;17.50;34.20;;;;;;5028931;28;20088;-59
2023/04/07 05:04:20;;;;;;;79.75;15.40;;;17.40;33.50;;;;;;5029168;28;20076;-56
2023/04/07 05:06:46;;;;;;;62.00;15.00;;;17.30;33.50;;;;;;5029861;28;20065;-57
2023/04/07 05:09:12;;;;;;;55.40;14.48;;;17.30;33.60;;;;;;5028223;28;20101;-62
2023/04/07 05:11:41;;;;;;;58.67;15.13;;;17.30;35.20;;;;;;5028141;28;20085;-55
2023/04/07 05:14:07;;;;;;;55.90;15.07;;;17.30;35.20;;;;;;5026553;28;20127;-60
2023/04/07 05:16:35;;;;;;;68.55;16.23;;;17.20;35.60;;;;;;5024952;28;20425;-56
2023/04/07 05:19:01;;;;;;;57.42;15.32;;;17.20;35.20;;;;;;5024516;28;20568;-61
2023/04/07 05:21:28;;;;;;;70.97;15.40;;;17.10;35.70;;;;;;5026118;28;20094;-62
2023/04/07 05:23:54;;;;;;;73.10;16.17;;;17.10;35.40;;;;;;5023695;28;20088;-60
2023/04/07 05:26:21;;;;;;;63.63;16.15;;;17.10;35.40;;;;;;5021969;28;20533;-57
2023/04/07 05:28:47;;;;;;;72.93;16.27;;;17.00;36.00;;;;;;5027718;28;20077;-61
2023/04/07 05:31:14;;;;;;;58.50;15.65;;;17.00;36.30;;;;;;5027898;28;20080;-58
2023/04/07 05:33:40;;;;;;;63.10;17.23;;;16.90;36.70;;;;;;5028781;28;20537;-60
2023/04/07 05:36:07;;;;;;;67.53;16.92;;;16.90;36.60;;;;;;5027711;28;20144;-61
2023/04/07 05:38:33;;;;;;;59.25;17.73;;;16.90;36.60;;;;;;5026547;28;20146;-59
2023/04/07 05:41:00;;;;;;;90.45;24.52;;;16.80;38.00;;;;;;5027216;28;20084;-60
2023/04/07 05:43:26;;;;;;;73.38;25.63;;;16.70;37.90;;;;;;5028154;28;20074;-61
2023/04/07 05:45:52;;;;;;;91.28;29.88;;;16.70;37.50;;;;;;5028150;28;20167;-59
2023/04/07 05:48:19;;;;;;;98.97;29.58;;;16.80;38.30;;;;;;5027392;28;21049;-58
2023/04/07 05:50:46;;;;;;;106.25;30.73;;;16.70;38.70;;;;;;5026342;28;20118;-61
2023/04/07 05:53:12;;;;;;;95.72;34.00;;;16.60;38.10;;;;;;5029276;28;20594;-59
2023/04/07 05:55:41;;;;;;;90.30;36.65;;;16.60;38.00;;;;;;5028353;28;20091;-59
2023/04/07 05:58:07;;;;;;;117.88;41.95;;;16.60;37.80;;;;;;5029043;28;20066;-61
2023/04/07 06:00:34;;;;;;;107.43;39.97;;;16.50;39.00;;;;;;5027776;28;20102;-59
2023/04/07 06:03:01;;;;;;;109.40;39.03;;;16.40;38.90;;;;;;5029123;28;20074;-60
2023/04/07 06:05:27;;;;;;;84.28;35.22;;;16.30;38.60;;;;;;5027326;28;20473;-60
2023/04/07 06:07:54;;;;;;;98.47;37.78;;;16.20;38.40;;;;;;5028450;28;20065;-61
2023/04/07 06:10:20;;;;;;;;;;;16.30;38.90;;;;;;5028964;28;20146;-61
2023/04/07 06:12:46;;;;;;;87.95;35.33;;;16.30;39.10;;;;;;5027522;28;19964;-59
2023/04/07 06:15:12;;;;;;;84.03;33.50;;;16.20;39.10;;;;;;5027480;28;20072;-59
2023/04/07 06:17:39;;;;;;;89.07;31.23;;;16.10;38.80;;;;;;5027991;28;20501;-58
2023/04/07 06:20:06;;;;;;;75.93;26.85;;;16.10;38.10;;;;;;5026786;28;20113;-56
2023/04/07 06:22:33;;;;;;;92.40;26.20;;;16.20;37.60;;;;;;5026945;28;20081;-59
2023/04/07 06:24:59;;;;;;;80.93;23.33;;;16.10;39.00;;;;;;5026897;28;20449;-62
2023/04/07 06:27:26;;;;;;;65.25;21.63;;;16.10;38.80;;;;;;5024004;28;20158;-59
2023/04/07 06:29:52;;;;;;;56.35;20.60;;;16.00;38.40;;;;;;5027733;28;20066;-58
2023/04/07 06:32:19;;;;;;;;;;;16.00;38.50;;;;;;5027440;28;20064;-58
2023/04/07 06:34:46;;;;;;;63.22;20.60;;;16.00;38.70;;;;;;5027821;28;19962;-59
2023/04/07 06:37:12;;;;;;;62.60;18.45;;;15.90;38.50;;;;;;5027110;28;20069;-60
2023/04/07 06:39:38;;;;;;;;;;;15.90;38.90;;;;;;5027579;28;20168;-60
2023/04/07 06:42:04;;;;;;;61.92;19.35;;;15.90;39.30;;;;;;5027596;28;20068;-61
2023/04/07 06:44:30;;;;;;;;;;;15.90;39.80;;;;;;5027606;28;20169;-58
2023/04/07 06:46:57;;;;;;;63.28;19.40;;;15.80;39.40;;;;;;5027203;28;19966;-60
2023/04/07 06:49:23;;;;;;;58.97;17.75;;;15.80;39.00;;;;;;5027168;28;20073;-60
2023/04/07 06:51:49;;;;;;;;;;;15.80;40.40;;;;;;5031170;28;20090;-59
2023/04/07 06:54:16;;;;;;;66.80;19.52;;;15.70;39.60;;;;;;5030767;28;20011;-61
2023/04/07 06:56:43;;;;;;;55.58;18.85;;;15.70;39.50;;;;;;5029658;28;20081;-61
2023/04/07 06:59:10;;;;;;;57.05;17.65;;;15.60;41.30;;;;;;5030956;28;20159;-58
2023/04/07 07:01:36;;;;;;;55.95;19.10;;;15.60;39.10;;;;;;5031335;28;20090;-62
2023/04/07 07:04:04;;;;;;;63.35;18.23;;;15.60;38.80;;;;;;5030336;28;20074;-60
2023/04/07 07:06:31;;;;;;;67.47;17.60;;;15.60;39.30;;;;;;5030384;28;20073;-57
2023/04/07 07:08:59;;;;;;;54.75;17.55;;;15.50;40.50;;;;;;5031851;28;20073;-61
2023/04/07 07:11:26;;;;;;;70.63;18.23;;;15.50;39.70;;;;;;5031275;28;20538;-60
2023/04/07 07:13:52;;;;;;;59.83;18.50;;;15.50;38.50;;;;;;5031534;28;20132;-57
2023/04/07 07:16:18;;;;;;;;;;;15.50;39.50;;;;;;5031531;28;20074;-58
2023/04/07 07:18:45;;;;;;;53.33;16.83;;;15.50;39.50;;;;;;5030748;28;19966;-58
2023/04/07 07:21:11;;;;;;;;;;;15.50;39.20;;;;;;5031484;28;20612;-58
2023/04/07 07:23:37;;;;;;;63.00;18.80;;;15.30;40.10;;;;;;5031043;28;19958;-58
2023/04/07 07:26:03;;;;;;;;;;;15.30;41.10;;;;;;5031596;28;20078;-58
2023/04/07 07:28:29;;;;;;;60.63;21.95;;;15.20;40.30;;;;;;5027894;28;19965;-57
2023/04/07 07:30:55;;;;;;;;;;;15.30;40.30;;;;;;5030753;28;20079;-58
2023/04/07 07:33:22;;;;;;;88.13;24.27;;;15.30;40.10;;;;;;5032324;28;19966;-58
2023/04/07 07:35:48;;;;;;;;;;;15.30;41.20;;;;;;5029587;28;20407;-59
2023/04/07 07:38:15;;;;;;;77.20;23.65;;;15.30;40.80;;;;;;5029452;28;19962;-58
2023/04/07 07:40:41;;;;;;;81.22;23.30;;;15.30;40.30;;;;;;5027867;28;20093;-61
2023/04/07 07:43:07;;;;;;;;;;;15.20;41.40;;;;;;5029464;28;20119;-59
2023/04/07 07:45:33;;;;;;;73.43;25.27;;;15.20;41.00;;;;;;5027678;28;19993;-60
2023/04/07 07:47:59;;;;;;;;;;;15.20;40.40;;;;;;5030693;28;20492;-58
2023/04/07 07:50:26;;;;;;;71.07;23.73;;;15.20;41.10;;;;;;5030019;28;20432;-59
2023/04/07 07:52:52;;;;;;;;;;;15.20;40.60;;;;;;5031032;28;20070;-58
2023/04/07 07:55:19;;;;;;;78.25;25.08;;;15.20;41.00;;;;;;5029902;28;20042;-59
2023/04/07 07:57:45;;;;;;;81.32;26.63;;;15.20;41.20;;;;;;5029176;28;20078;-60
2023/04/07 08:00:12;;;;;;;;;;;15.10;40.10;;;;;;5031316;28;20085;-58
2023/04/07 08:02:38;;;;;;;83.28;27.77;;;15.10;38.70;;;;;;5029865;28;21341;-58
2023/04/07 08:05:04;;;;;;;;;;;15.10;38.10;;;;;;5031411;28;20073;-60
2023/04/07 08:07:32;;;;;;;92.38;26.30;;;15.10;38.80;;;;;;5030480;28;20414;-63
2023/04/07 08:09:58;;;;;;;70.75;24.17;;;15.10;38.60;;;;;;5029840;28;20074;-61
2023/04/07 08:12:24;;;;;;;;;;;15.10;38.10;;;;;;5030676;28;20415;-60
2023/04/07 08:14:51;;;;;;;59.42;21.48;;;15.10;37.10;;;;;;5030612;28;20067;-56
2023/04/07 08:17:17;;;;;;;;;;;15.10;36.40;;;;;;5031052;28;20070;-59
2023/04/07 08:19:43;;;;;;;57.58;17.60;;;15.10;35.10;;;;;;5030279;28;19957;-57
2023/04/07 08:22:09;;;;;;;;;;;15.10;35.10;;;;;;5030424;28;20180;-58
2023/04/07 08:24:35;;;;;;;41.47;15.18;;;15.20;33.70;;;;;;5029878;28;20000;-56
2023/04/07 08:27:01;;;;;;;;;;;15.20;33.70;;;;;;5029959;28;20070;-59
2023/04/07 08:29:28;;;;;;;40.78;13.38;;;15.20;33.40;;;;;;5027067;28;19964;-58
2023/04/07 08:31:54;;;;;;;;;;;15.20;33.40;;;;;;5030529;28;20565;-61
2023/04/07 08:34:21;;;;;;;35.25;10.73;;;15.20;33.00;;;;;;5030437;28;19973;-60
2023/04/07 08:36:47;;;;;;;;;;;15.20;33.00;;;;;;5029920;28;20573;-59
2023/04/07 08:39:13;;;;;;;23.10;9.45;;;15.20;33.10;;;;;;5030026;28;20068;-62
2023/04/07 08:41:40;;;;;;;;;;;15.20;33.00;;;;;;5030726;28;20139;-59
2023/04/07 08:44:10;;;;;;;24.80;6.90;;;15.20;32.80;;;;;;5029458;28;19981;-59
2023/04/07 08:46:39;;;;;;;26.70;6.20;;;15.30;30.40;;;;;;5028291;28;20070;-58
2023/04/07 08:49:14;;;;;;;25.30;6.32;;;15.40;29.50;;;;;;5029334;28;20165;-62
2023/04/07 08:51:48;;;;;;;13.25;5.60;;;15.40;29.40;;;;;;5029419;28;20112;-59
2023/04/07 08:54:21;;;;;;;26.60;6.00;;;15.40;30.50;;;;;;5029537;28;20127;-59
2023/04/07 08:56:47;;;;;;;19.73;5.72;;;15.40;29.90;;;;;;5028324;28;20090;-63
2023/04/07 08:59:14;;;;;;;;;;;15.40;29.90;;;;;;5029539;28;20085;-60
2023/04/07 09:01:41;;;;;;;22.95;6.70;;;15.40;30.50;;;;;;5028800;28;19973;-59
2023/04/07 09:04:09;;;;;;;20.50;5.93;;;15.30;31.50;;;;;;5029391;28;20091;-60
2023/04/07 09:06:37;;;;;;;16.45;5.82;;;15.30;32.20;;;;;;5028499;28;20078;-58
2023/04/07 09:09:06;;;;;;;29.70;7.10;;;15.20;32.40;;;;;;5029430;28;20078;-58
2023/04/07 09:11:36;;;;;;;25.15;7.35;;;15.10;32.70;;;;;;5028801;28;20712;-57
2023/04/07 09:14:03;;;;;;;22.25;6.57;;;15.10;32.30;;;;;;5027509;28;20074;-58
2023/04/07 09:16:32;;;;;;;19.67;6.93;;;15.00;32.20;;;;;;5029199;28;20456;-60
2023/04/07 09:18:59;;;;;;;29.75;7.30;;;15.00;33.50;;;;;;5028544;28;20144;-59
2023/04/07 09:21:26;;;;;;;26.13;7.20;;;14.90;32.70;;;;;;5028759;28;20093;-57
2023/04/07 09:23:52;;;;;;;24.02;7.10;;;14.90;33.00;;;;;;5028996;28;20806;-60
2023/04/07 09:26:27;;;;;;;25.15;7.32;;;14.90;32.60;;;;;;5028206;28;20119;-60
2023/04/07 09:29:06;;;;;;;18.52;6.90;;;14.80;32.70;;;;;;5028886;28;20073;-59
2023/04/07 09:31:53;;;;;;;32.92;7.43;;;14.80;33.10;;;;;;5027802;28;20164;-59
2023/04/07 09:34:25;;;;;;;24.40;7.05;;;14.80;32.70;;;;;;5028459;28;20525;-59
2023/04/07 09:36:52;;;;;;;23.08;6.32;;;14.70;33.00;;;;;;5028465;28;20172;-60
2023/04/07 09:39:19;;;;;;;15.45;5.60;;;14.70;33.20;;;;;;5028821;28;20176;-53
2023/04/07 09:41:45;;;;;;;18.27;5.50;;;14.70;32.80;;;;;;5028476;28;20086;-58
2023/04/07 09:44:12;;;;;;;15.65;4.32;;;14.60;32.90;;;;;;5027107;28;20461;-58
2023/04/07 09:46:53;;;;;;;10.50;3.88;;;14.60;33.20;;;;;;5028095;28;20541;-57
2023/04/07 09:49:20;;;;;;;18.20;3.08;;;14.70;33.50;;;;;;5028220;28;20085;-59
2023/04/07 09:51:57;;;;;;;21.48;3.30;;;14.60;33.70;;;;;;5028382;28;20069;-56
2023/04/07 09:54:36;;;;;;;;;;;14.60;34.40;;;;;;5028966;28;20076;-56
2023/04/07 09:57:07;;;;;;;26.70;3.63;;;14.50;34.70;;;;;;5028282;28;19965;-56
2023/04/07 09:59:38;;;;;;;18.25;2.80;;;14.40;34.90;;;;;;5028232;28;20070;-56
2023/04/07 10:02:05;;;;;;;8.93;2.33;;;14.40;35.00;;;;;;5028169;28;20095;-59
2023/04/07 10:04:31;;;;;;;9.95;2.30;;;14.30;35.00;;;;;;5028258;28;20074;-59
2023/04/07 10:06:59;;;;;;;7.70;2.10;;;14.30;35.30;;;;;;5028150;28;20086;-60
2023/04/07 10:09:27;;;;;;;11.82;2.00;;;14.20;35.40;;;;;;5029140;28;20078;-61
2023/04/07 10:11:58;;;;;;;8.05;2.00;;;14.10;35.90;;;;;;5028721;28;20445;-58
2023/04/07 10:14:31;;;;;;;7.35;1.70;;;14.10;36.30;;;;;;5028435;28;20596;-59
2023/04/07 10:17:02;;;;;;;8.88;1.70;;;14.10;36.20;;;;;;5028251;28;20080;-60
2023/04/07 10:19:33;;;;;;;6.47;2.00;;;14.00;36.80;;;;;;5027098;28;20070;-58
2023/04/07 10:22:04;;;;;;;6.25;1.50;;;14.00;37.10;;;;;;5028140;28;20086;-58
2023/04/07 10:24:49;;;;;;;5.43;1.55;;;13.90;37.30;;;;;;5027866;28;20120;-62
2023/04/07 10:27:20;;;;;;;14.82;2.17;;;13.90;37.60;;;;;;5031287;28;20477;-57
2023/04/07 10:29:49;;;;;;;12.18;1.90;;;13.80;37.80;;;;;;5030746;28;20414;-59
2023/04/07 10:32:16;;;;;;;8.40;1.75;;;13.80;38.10;;;;;;5029797;28;20438;-59
2023/04/07 10:34:54;;;;;;;10.02;1.52;;;13.70;38.30;;;;;;5031521;28;20093;-58
2023/04/07 10:37:22;;;;;;;6.95;2.20;;;13.70;38.30;;;;;;5030819;28;20070;-62
2023/04/07 10:39:50;;;;;;;6.00;1.50;;;13.70;38.30;;;;;;5032259;28;20085;-61
2023/04/07 10:42:38;;;;;;;6.85;1.77;;;13.60;38.40;;;;;;5031261;28;20093;-61
2023/04/07 10:45:06;;;;;;;7.25;1.73;;;13.60;38.40;;;;;;5031497;28;20530;-58
2023/04/07 10:47:33;;;;;;;11.55;1.90;;;13.50;38.40;;;;;;5031273;28;20523;-60
2023/04/07 10:50:22;;;;;;;6.00;1.90;;;13.50;38.40;;;;;;5031606;28;20070;-59
2023/04/07 10:53:10;;;;;;;4.75;1.50;;;13.40;38.70;;;;;;5030175;28;20443;-58
2023/04/07 10:55:45;;;;;;;12.43;2.30;;;13.40;38.30;;;;;;5031280;28;20070;-58
2023/04/07 10:58:15;;;;;;;6.03;1.77;;;13.40;38.00;;;;;;5031668;28;20066;-62
2023/04/07 11:00:42;;;;;;;6.00;1.63;;;13.40;37.90;;;;;;5031606;28;20168;-56
2023/04/07 11:03:13;;;;;;;4.78;1.75;;;13.40;37.60;;;;;;5031555;28;20120;-58
2023/04/07 11:05:42;;;;;;;4.32;1.58;;;13.40;38.00;;;;;;5030674;28;20081;-59
2023/04/07 11:08:09;;;;;;;11.52;1.90;;;13.40;37.40;;;;;;5031611;28;20080;-60
2023/04/07 11:10:35;;;;;;;13.02;1.90;;;13.40;37.40;;;;;;5031246;28;20082;-61
2023/04/07 11:13:05;;;;;;;4.95;1.92;;;13.40;37.30;;;;;;5031128;28;20082;-52
2023/04/07 11:15:33;;;;;;;8.07;1.70;;;13.40;37.40;;;;;;5030922;28;20078;-58
2023/04/07 11:18:15;;;;;;;9.52;1.83;;;13.40;37.50;;;;;;5031950;28;20078;-58
2023/04/07 11:20:46;;;;;;;4.80;1.50;;;13.40;37.20;;;;;;5030911;28;20093;-58
2023/04/07 11:23:14;;;;;;;9.80;2.00;;;13.40;37.30;;;;;;5031427;28;20492;-58
2023/04/07 11:25:43;;;;;;;7.90;1.58;;;13.50;37.10;;;;;;5031414;28;20078;-59
2023/04/07 11:28:12;;;;;;;6.55;1.42;;;13.60;37.10;;;;;;5030164;28;20133;-55
2023/04/07 11:30:43;;;;;;;6.72;2.28;;;13.60;37.00;;;;;;5031016;28;20132;-60
2023/04/07 11:33:15;;;;;;;7.28;2.10;;;13.70;36.70;;;;;;5028129;28;20783;-58
2023/04/07 11:36:01;;;;;;;6.82;1.63;;;13.70;36.10;;;;;;5029376;28;20077;-63
2023/04/07 11:38:37;;;;;;;5.80;1.53;;;13.80;36.20;;;;;;5029061;28;20178;-57
2023/04/07 11:41:12;;;;;;;12.07;1.67;;;13.90;36.00;;;;;;5030871;28;20741;-57
2023/04/07 11:43:40;;;;;;;5.30;1.67;;;13.90;35.70;;;;;;5030344;28;20073;-59
2023/04/07 11:46:12;;;;;;;11.07;1.60;;;13.90;36.50;;;;;;5031368;28;20104;-56
2023/04/07 11:48:41;;;;;;;9.40;2.03;;;13.90;36.00;;;;;;5031341;28;20073;-60
2023/04/07 11:51:24;;;;;;;7.13;1.52;;;13.90;36.60;;;;;;5030527;28;20157;-58
2023/04/07 11:53:56;;;;;;;6.35;1.85;;;14.00;37.20;;;;;;5030390;28;20081;-56
2023/04/07 11:56:22;;;;;;;7.20;1.67;;;13.90;38.40;;;;;;5030804;28;20073;-59
2023/04/07 11:58:49;;;;;;;;;;;13.80;38.40;;;;;;5030728;28;20066;-59
2023/04/07 12:01:16;;;;;;;6.80;2.03;;;13.70;40.00;;;;;;5030311;28;20017;-57
2023/04/07 12:03:58;;;;;;;7.07;1.80;;;13.80;38.40;;;;;;5030723;28;20074;-59
2023/04/07 12:06:29;;;;;;;7.97;1.92;;;13.80;39.20;;;;;;5030248;28;20090;-59
2023/04/07 12:08:56;;;;;;;8.48;2.00;;;13.80;38.50;;;;;;5030903;28;20085;-59
2023/04/07 12:11:23;;;;;;;11.32;2.05;;;13.80;39.80;;;;;;5030253;28;20094;-58
2023/04/07 12:13:50;;;;;;;7.93;1.50;;;13.80;40.20;;;;;;5030147;28;20498;-56
2023/04/07 12:16:17;;;;;;;15.20;1.85;;;13.70;40.30;;;;;;5026971;28;20101;-57
2023/04/07 12:18:44;;;;;;;19.15;1.98;;;13.70;39.40;;;;;;5029356;28;20160;-57
2023/04/07 12:21:10;;;;;;;13.43;2.92;;;13.70;39.10;;;;;;5029321;28;20125;-57
2023/04/07 12:23:36;;;;;;;;;;;13.60;40.70;;;;;;5029269;28;20069;-59
2023/04/07 12:26:03;;;;;;;10.43;2.30;;;13.60;40.90;;;;;;5030097;28;20012;-53
2023/04/07 12:28:29;;;;;;;14.27;2.67;;;13.60;40.10;;;;;;5029916;28;20078;-58
2023/04/07 12:30:56;;;;;;;13.57;2.60;;;13.60;39.40;;;;;;5029991;28;20069;-57
2023/04/07 12:33:22;;;;;;;;;;;13.60;38.70;;;;;;5027605;28;20526;-54
2023/04/07 12:35:49;;;;;;;17.80;3.58;;;13.60;40.50;;;;;;5029069;28;19972;-57
2023/04/07 12:38:15;;;;;;;11.68;3.00;;;13.50;39.90;;;;;;5029532;28;20501;-55
2023/04/07 12:40:42;;;;;;;;;;;13.30;40.40;;;;;;5030422;28;20556;-55
2023/04/07 12:43:08;;;;;;;10.57;2.80;;;13.30;40.60;;;;;;5029794;28;20015;-60
2023/04/07 12:45:35;;;;;;;17.15;2.78;;;13.30;40.50;;;;;;5029541;28;20109;-54
2023/04/07 12:48:01;;;;;;;11.55;2.97;;;13.30;40.10;;;;;;5029279;28;20085;-55
2023/04/07 12:50:29;;;;;;;14.38;3.38;;;13.30;39.50;;;;;;5029588;28;20093;-58
2023/04/07 12:52:57;;;;;;;19.50;3.65;;;13.40;39.20;;;;;;5029701;28;20143;-58